Aviation Digital Data Service (ADDS)

Output produced by METARs form (0747 UTC 25 April 2014)
found at http://aviationweather.gov/adds/metars/
 
KLBE 250525Z 2506/2606 13008KT P6SM OVC150 
     FM251800 16010G20KT 4SM -SHRA OVC020 
     FM252100 19010G20KT 4SM -SHRA OVC010 
     FM260000 26012G22KT P6SM OVC008